• Join FlightAware (Why Join?)
  • Login
  • US Flag 
07:22AM EST


 

Airport Tracker/Info


-or-


 

Live Flight TrackerFlight Track Log ✈ HA312 ✈ 21-Aug-2014 ✈ CYVR - CYYD

Flight Track Log - Related Links

Times and Time Zones

All times are in EDT time to prevent confusion due to time zone crossing. See the HA312 flight status page for this flight to view local times or setup timezone preferences in your user account.

Time Position Orientation Groundspeed Altitude Reporting Facility
EDT Latitude Longitude Course Direction KTS MPH feet Rate Location/Type
09:40PM 49.1667 -123.2333 334° Northwest 130 150 1,400  Level Vancouver Center
09:41PM 49.1833 -123.2833 297° West 140 161 2,400 1,140 Climbing Vancouver Center
09:42PM 49.1833 -123.3333 270° West 140 161 3,700 1,140 Climbing Vancouver Center
09:43PM 49.2000 -123.3833 297° West 140 161 4,700 1,080 Climbing Vancouver Center
09:44PM 49.5450 -123.4037 327° Northwest  Level Estimated
09:44PM 49.2333 -123.4333 316° Northwest 140 161 5,900  Level Vancouver Center
09:45PM 49.5588 -123.5358 334° Northwest  Level FlightAware Approximate
09:45PM 49.2500 -123.5000 291° West 140 161 7,000  Level Vancouver Center
09:46PM 49.2833 -123.5500 316° Northwest 150 173 8,100 1,020 Climbing Vancouver Center
09:47PM 49.3167 -123.5667 342° North 150 173 9,100 960 Climbing Vancouver Center
09:48PM 49.3500 -123.6000 327° Northwest 150 173 10,100 960 Climbing Vancouver Center
09:49PM 49.3833 -123.6500 316° Northwest 150 173 11,100 900 Climbing Vancouver Center
09:50PM 49.4167 -123.6667 342° North 150 173 12,000 900 Climbing Vancouver Center
09:51PM 49.4667 -123.7167 327° Northwest 160 184 13,000 900 Climbing Vancouver Center
09:52PM 49.5000 -123.7500 327° Northwest 170 196 13,800 840 Climbing Vancouver Center
09:53PM 49.5333 -123.8000 316° Northwest 170 196 14,700 780 Climbing Vancouver Center
09:54PM 49.5833 -123.8500 327° Northwest 180 207 15,400 720 Climbing Vancouver Center
09:55PM 49.6167 -123.8833 327° Northwest 180 207 16,200 840 Climbing Vancouver Center
09:56PM 49.6500 -123.9500 308° West 180 207 17,100 840 Climbing Vancouver Center
09:57PM 49.6833 -124.0000 316° Northwest 180 207 17,900 780 Climbing Vancouver Center
09:58PM 49.7167 -124.0500 316° Northwest 170 196 18,700 660 Climbing Vancouver Center
09:59PM 49.7333 -124.1167 291° West 170 196 19,300 600 Climbing Vancouver Center
10:00PM 49.7833 -124.1667 327° Northwest 170 196 19,900 540 Climbing Vancouver Center
10:01PM 49.8167 -124.1833 342° North 180 207 20,400 540 Climbing Vancouver Center
10:02PM 49.8667 -124.2167 337° Northwest 180 207 21,000 480 Climbing Vancouver Center
10:03PM 49.9167 -124.2667 327° Northwest 180 207 21,400 360 Climbing Vancouver Center
10:04PM 49.9500 -124.3000 327° Northwest 180 207 21,800 300 Climbing Vancouver Center
10:05PM 50.0000 -124.3500 327° Northwest 190 219 22,000 60 Climbing Vancouver Center
10:06PM 50.0500 -124.4000 327° Northwest 200 230 22,000  Level Vancouver Center
10:07PM 50.1000 -124.4500 327° Northwest 220 253 22,000  Level Vancouver Center
10:08PM 50.1500 -124.5000 327° Northwest 230 265 22,000  Level Vancouver Center
10:09PM 50.2000 -124.5500 327° Northwest 240 276 22,000  Level Vancouver Center
10:10PM 50.2667 -124.6167 327° Northwest 240 276 22,000  Level Vancouver Center
10:11PM 50.3167 -124.6667 327° Northwest 240 276 22,000  Level Vancouver Center
10:12PM 50.3833 -124.7333 327° Northwest 240 276 22,000  Level Vancouver Center
10:13PM 50.4333 -124.7667 337° Northwest 240 276 22,000  Level Vancouver Center
10:14PM 50.5000 -124.8000 342° North 240 276 22,000  Level Vancouver Center
10:15PM 50.5667 -124.8167 351° North 240 276 22,000  Level Vancouver Center
10:16PM 50.6333 -124.8500 342° North 240 276 22,000  Level Vancouver Center
10:17PM 50.7000 -124.8833 342° North 230 265 22,000  Level Vancouver Center
10:18PM 50.7500 -124.9000 348° North 240 276 22,000  Level Vancouver Center
10:19PM 50.8167 -124.9333 342° North 230 265 22,000  Level Vancouver Center
10:20PM 50.8833 -124.9667 342° North 230 265 22,000  Level Vancouver Center
10:21PM 50.9500 -124.9833 351° North 240 276 22,000  Level Vancouver Center
10:22PM 51.0000 -125.0167 337° Northwest 230 265 22,000  Level Vancouver Center
10:23PM 51.0667 -125.0500 343° North 230 265 22,000  Level Vancouver Center
10:24PM 51.1333 -125.0833 343° North 230 265 22,000  Level Vancouver Center
10:25PM 51.2000 -125.1000 351° North 230 265 22,000  Level Vancouver Center
10:26PM 51.2500 -125.1333 337° Northwest 240 276 22,000  Level Vancouver Center
10:27PM 51.3167 -125.1667 343° North 230 265 22,000  Level Vancouver Center
10:28PM 51.3833 -125.1833 351° North 230 265 22,000  Level Vancouver Center
10:29PM 51.4500 -125.2167 343° North 230 265 22,000  Level Vancouver Center
10:30PM 51.5000 -125.2500 337° Northwest 230 265 22,000  Level Vancouver Center
10:31PM 51.5667 -125.2833 343° North 230 265 22,000  Level Vancouver Center
10:32PM 51.6333 -125.3000 351° North 230 265 22,000  Level Vancouver Center
10:33PM 51.6833 -125.3333 338° Northwest 230 265 22,000  Level Vancouver Center
10:34PM 51.7500 -125.3667 343° North 220 253 22,000  Level Vancouver Center
10:35PM 51.8167 -125.3833 351° North 230 265 22,000  Level Vancouver Center
10:36PM 51.8667 -125.4167 338° Northwest 230 265 22,000  Level Vancouver Center
10:37PM 51.9333 -125.4500 343° North 230 265 22,000  Level Vancouver Center
10:38PM 52.0000 -125.4833 343° North 230 265 22,000  Level Vancouver Center
10:39PM 52.0500 -125.4833 360° North 230 265 22,000  Level Vancouver Center
10:40PM 52.1167 -125.5167 343° North 230 265 22,000  Level Vancouver Center
10:41PM 52.1833 -125.5333 351° North 230 265 22,000  Level Vancouver Center
10:42PM 52.2333 -125.5667 338° Northwest 230 265 22,000  Level Vancouver Center
10:43PM 52.3000 -125.6000 343° North 230 265 22,000  Level Vancouver Center
10:44PM 52.3667 -125.6333 343° North 230 265 22,000  Level Vancouver Center
10:45PM 52.4333 -125.6667 343° North 230 265 22,000  Level Vancouver Center
10:46PM 52.4833 -125.6833 349° North 230 265 22,000  Level Vancouver Center
10:47PM 52.5500 -125.7167 343° North 230 265 22,000  Level Vancouver Center
10:48PM 52.6167 -125.7500 343° North 230 265 22,000  Level Vancouver Center
10:49PM 52.6667 -125.7833 338° Northwest 220 253 22,000  Level Vancouver Center
10:50PM 52.7333 -125.8167 343° North 230 265 22,000  Level Vancouver Center
10:51PM 52.7833 -125.8333 349° North 230 265 22,000  Level Vancouver Center
10:52PM 52.8500 -125.8667 343° North 230 265 22,000  Level Vancouver Center
10:53PM 52.9167 -125.9000 343° North 230 265 22,000  Level Vancouver Center
10:54PM 52.9833 -125.9333 343° North 230 265 22,000  Level Vancouver Center
10:55PM 53.0333 -125.9667 338° Northwest 230 265 22,000  Level Vancouver Center
10:56PM 53.1000 -126.0000 343° North 230 265 22,000  Level Vancouver Center
10:57PM 53.1500 -126.0167 349° North 230 265 22,000  Level Vancouver Center
10:58PM 53.2167 -126.0500 343° North 230 265 22,000  Level Vancouver Center
10:59PM 53.2667 -126.0833 338° Northwest 230 265 22,000  Level Vancouver Center
11:00PM 53.3333 -126.1167 343° North 230 265 22,000 -180 Level Vancouver Center
11:01PM 53.3833 -126.1833 322° Northwest 230 265 21,700 -360 Descending Vancouver Center
11:02PM 53.4500 -126.2000 352° North 240 276 21,300 -420 Descending Vancouver Center
11:03PM 53.5167 -126.2667 329° Northwest 250 288 20,900 -540 Descending Vancouver Center
11:04PM 53.5833 -126.3333 329° Northwest 260 299 20,300 -660 Descending Vancouver Center
11:05PM 53.6500 -126.3833 336° Northwest 260 299 19,600 -720 Descending Vancouver Center
11:06PM 53.7167 -126.4500 329° Northwest 270 311 18,900 -720 Descending Vancouver Center
11:07PM 53.7833 -126.5167 329° Northwest 280 322 18,200 -600 Descending Vancouver Center
11:08PM 53.8500 -126.5667 336° Northwest 270 311 17,700 -600 Descending Vancouver Center
11:09PM 53.9167 -126.6000 344° North 270 311 17,000 -300 Descending Vancouver Center
11:14PM 54.2667 -126.6167 340° North 220 253 16,000 -480 Descending Vancouver Center
11:15PM 54.3500 -126.6333 353° North 270 311 14,300 -1,560 Descending Vancouver Center
11:16PM 54.4167 -126.6667 344° North 300 345 12,900 -1,440 Descending Vancouver Center
11:18PM 54.4149 -126.9104 340° North  Level FlightAware Approximate
11:18PM 54.5116 -126.7856 324° Northwest  Level Estimated
11:19PM 54.4709 -126.9458 340° North  Level FlightAware Approximate
11:25PM 54.8247 -127.1828 339° North  Level Estimated
11:26PM 54.8247 -127.1828 North  Level Estimated
11:27PM 54.8247 -127.1828 North  Level Estimated
11:28PM 54.8247 -127.1828 North  Level Estimated
11:29PM 54.8247 -127.1828 North  Level Estimated